| time (UTC) | temp F | wind direction | speed knots | gust knots | rain 1hr in | rain 24hr in | rain mn in | humidity % | barometer mb |
| 20260906182036 | 103 | 51 | 0.9 | 5.2 | 0.00 | 0.00 | 0.00 | 28 | 1015.9 |
| 20260906181039 | 102 | 119 | 1.7 | 6.1 | 0.00 | 0.00 | 0.00 | 27 | 1016.2 |
| 20260906180030 | 101 | 126 | 1.7 | 4.3 | 0.00 | 0.00 | 0.00 | 29 | 1016.3 |
| 20260906175042 | 101 | 66 | 0.0 | 3.5 | 0.00 | 0.00 | 0.00 | 29 | 1016.6 |
| 20260906174042 | 101 | 115 | 0.9 | 3.5 | 0.00 | 0.00 | 0.00 | 28 | 1016.8 |
| 20260906173118 | 103 | 90 | 0.9 | 4.3 | 0.00 | 0.00 | 0.00 | 28 | 1017.0 |
| 20260906172056 | 103 | 247 | 2.6 | 5.2 | 0.00 | 0.00 | 0.00 | 28 | 1017.3 |
| 20260906171024 | 102 | 45 | 0.9 | 4.3 | 0.00 | 0.00 | 0.00 | 30 | 1017.4 |
| 20260906170103 | 101 | 191 | 1.7 | 4.3 | 0.00 | 0.00 | 0.00 | 29 | 1017.5 |
| 20260906165042 | 100 | 243 | 0.9 | 4.3 | 0.00 | 0.00 | 0.00 | 32 | 1017.6 |
| 20260906164048 | 101 | 72 | 0.9 | 4.3 | 0.00 | 0.00 | 0.00 | 31 | 1017.7 |
| 20260906163027 | 100 | 134 | 1.7 | 5.2 | 0.00 | 0.00 | 0.00 | 32 | 1017.8 |
| 20260906162049 | 99 | 146 | 1.7 | 4.3 | 0.00 | 0.00 | 0.00 | 35 | 1017.9 |
| 20260906161058 | 99 | 40 | 0.9 | 3.5 | 0.00 | 0.00 | 0.00 | 36 | 1018.0 |
| 20260906160037 | 98 | 44 | 0.0 | 3.5 | 0.00 | 0.00 | 0.00 | 38 | 1018.0 |
| 20260906155046 | 96 | 278 | 2.6 | 3.5 | 0.00 | 0.00 | 0.00 | 41 | 1018.0 |
| 20260906154020 | 96 | 120 | 0.0 | 1.7 | 0.00 | 0.00 | 0.00 | 43 | 1017.9 |
| 20260906153054 | 95 | 20 | 0.9 | 3.5 | 0.00 | 0.00 | 0.00 | 44 | 1017.9 |
| 20260906152036 | 94 | 99 | 0.9 | 1.7 | 0.00 | 0.00 | 0.00 | 45 | 1017.9 |
| 20260906151039 | 93 | 234 | 0.9 | 3.5 | 0.00 | 0.00 | 0.00 | 45 | 1017.8 |
| 20260906150048 | 92 | 234 | 0.0 | 0.9 | 0.00 | 0.00 | 0.00 | 47 | 1017.9 |
| 20260906145056 | 91 | 234 | 0.9 | 3.5 | 0.00 | 0.00 | 0.00 | 50 | 1018.0 |
| 20260906144043 | 90 | 184 | 0.0 | 3.5 | 0.00 | 0.00 | 0.00 | 53 | 1017.9 |
| 20260906143041 | 89 | 184 | 0.9 | 3.5 | 0.00 | 0.00 | 0.00 | 54 | 1017.8 |
| 20260906142035 | 87 | 184 | 0.0 | 1.7 | 0.00 | 0.00 | 0.00 | 55 | 1017.7 |
| 20260906141035 | 85 | 184 | 0.0 | 2.6 | 0.00 | 0.00 | 0.00 | 59 | 1017.7 |
| 20260906140053 | 83 | 184 | 0.0 | 3.5 | 0.00 | 0.00 | 0.00 | 62 | 1017.7 |
| 20260906135053 | 81 | 209 | 0.9 | 4.3 | 0.00 | 0.00 | 0.00 | 66 | 1017.6 |
| 20260906134028 | 79 | 208 | 0.0 | 1.7 | 0.00 | 0.00 | 0.00 | 70 | 1017.5 |
| 20260906133048 | 77 | 208 | 0.0 | 0.9 | 0.00 | 0.00 | 0.00 | 73 | 1017.5 |
| 20260906132043 | 76 | 208 | 0.9 | 1.7 | 0.00 | 0.00 | 0.00 | 76 | 1017.3 |
| 20260906131043 | 75 | 208 | 0.0 | 1.7 | 0.00 | 0.00 | 0.00 | 77 | 1017.3 |
| 20260906130107 | 75 | 208 | 0.0 | 1.7 | 0.00 | 0.00 | 0.00 | 78 | 1017.2 |
| 20260906125054 | 74 | 301 | 0.0 | 1.7 | 0.00 | 0.00 | 0.00 | 79 | 1017.1 |
| 20260906124107 | 74 | 136 | 0.0 | 0.0 | 0.00 | 0.00 | 0.00 | 80 | 1017.0 |
| 20260906123043 | 74 | 136 | 0.0 | 0.0 | 0.00 | 0.00 | 0.00 | 81 | 1016.9 |
| 20260906122032 | 74 | 136 | 0.0 | 1.7 | 0.00 | 0.00 | 0.00 | 81 | 1016.9 |
| 20260906121042 | 74 | 136 | 0.0 | 0.9 | 0.00 | 0.00 | 0.00 | 81 | 1016.8 |
| 20260906120036 | 74 | 136 | 0.9 | 1.7 | 0.00 | 0.00 | 0.00 | 80 | 1016.9 |
| 20260906115037 | 74 | 136 | 0.0 | 1.7 | 0.00 | 0.00 | 0.00 | 80 | 1016.8 |
| 20260906114045 | 74 | 136 | 0.0 | 0.9 | 0.00 | 0.00 | 0.00 | 80 | 1016.7 |
| 20260906113047 | 74 | 136 | 0.0 | 1.7 | 0.00 | 0.00 | 0.00 | 80 | 1016.7 |
| 20260906112044 | 74 | 136 | 0.0 | 1.7 | 0.00 | 0.00 | 0.00 | 80 | 1016.5 |
| 20260906111033 | 74 | 136 | 0.0 | 0.0 | 0.00 | 0.00 | 0.00 | 80 | 1016.5 |
| 20260906110028 | 74 | 136 | 0.0 | 0.0 | 0.00 | 0.00 | 0.00 | 80 | 1016.5 |
| 20260906105034 | 74 | 136 | 0.0 | 0.0 | 0.00 | 0.00 | 0.00 | 79 | 1016.5 |
| 20260906104024 | 75 | 136 | 0.0 | 0.9 | 0.00 | 0.00 | 0.00 | 79 | 1016.4 |
| 20260906103058 | 75 | 136 | 0.0 | 0.0 | 0.00 | 0.00 | 0.00 | 78 | 1016.4 |
| 20260906102036 | 75 | 136 | 0.0 | 0.0 | 0.00 | 0.00 | 0.00 | 78 | 1016.3 |
| 20260906101037 | 75 | 136 | 0.0 | 0.9 | 0.00 | 0.00 | 0.00 | 78 | 1016.2 |
| 20260906100028 | 75 | 136 | 0.0 | 0.9 | 0.00 | 0.00 | 0.00 | 78 | 1016.2 |
| 20260906095033 | 75 | 136 | 0.0 | 0.0 | 0.00 | 0.00 | 0.00 | 78 | 1016.1 |
| 20260906094056 | 75 | 136 | 0.0 | 0.0 | 0.00 | 0.00 | 0.00 | 77 | 1016.0 |
| 20260906093028 | 75 | 136 | 0.0 | 0.9 | 0.00 | 0.00 | 0.00 | 77 | 1015.9 |
| 20260906092112 | 75 | 136 | 0.0 | 0.0 | 0.00 | 0.00 | 0.00 | 77 | 1015.9 |
| 20260906091037 | 76 | 136 | 0.0 | 0.0 | 0.00 | 0.00 | 0.00 | 76 | 1015.9 |
| 20260906090044 | 76 | 136 | 0.0 | 0.0 | 0.00 | 0.00 | 0.00 | 76 | 1015.9 |
| 20260906085122 | 76 | 136 | 0.0 | 0.0 | 0.00 | 0.00 | 0.00 | 75 | 1015.7 |
| 20260906084051 | 77 | 136 | 0.0 | 0.0 | 0.00 | 0.00 | 0.00 | 75 | 1015.7 |
| 20260906083030 | 77 | 136 | 0.0 | 0.9 | 0.00 | 0.00 | 0.00 | 75 | 1015.6 |
| 20260906082106 | 77 | 136 | 0.9 | 1.7 | 0.00 | 0.00 | 0.00 | 74 | 1015.6 |
| 20260906081022 | 77 | 136 | 0.9 | 1.7 | 0.00 | 0.00 | 0.00 | 73 | 1015.6 |
| 20260906075054 | 77 | 136 | 0.0 | 0.9 | 0.00 | 0.00 | 0.00 | 73 | 1015.6 |
| 20260906074116 | 77 | 136 | 0.9 | 1.7 | 0.00 | 0.00 | 0.00 | 73 | 1015.6 |
| 20260906073052 | 77 | 136 | 0.9 | 0.9 | 0.00 | 0.00 | 0.00 | 73 | 1015.7 |
| 20260906072047 | 78 | 136 | 0.9 | 3.5 | 0.00 | 0.00 | 0.00 | 73 | 1015.8 |
| 20260906071035 | 78 | 108 | 0.0 | 1.7 | 0.00 | 0.00 | 0.00 | 73 | 1015.8 |
| 20260906070109 | 78 | 33 | 0.9 | 0.9 | 0.00 | 0.00 | 0.00 | 73 | 1015.9 |
| 20260906065046 | 78 | 33 | 0.0 | 0.0 | 0.00 | 0.00 | 0.00 | 73 | 1015.9 |
| 20260906064111 | 78 | 33 | 0.0 | 0.0 | 0.00 | 0.00 | 0.00 | 72 | 1015.9 |
| 20260906063112 | 79 | 33 | 0.0 | 0.0 | 0.00 | 0.00 | 0.00 | 72 | 1016.0 |
| 20260906062057 | 79 | 33 | 0.0 | 0.0 | 0.00 | 0.00 | 0.00 | 70 | 1016.0 |
| 20260906061126 | 79 | 33 | 0.0 | 0.9 | 0.00 | 0.00 | 0.00 | 70 | 1016.1 |
| 20260906060040 | 79 | 33 | 0.9 | 1.7 | 0.00 | 0.00 | 0.00 | 69 | 1016.1 |
| 20260906055053 | 79 | 33 | 0.0 | 0.0 | 0.00 | 0.00 | 0.00 | 68 | 1016.0 |
| 20260906054034 | 80 | 33 | 0.0 | 0.9 | 0.00 | 0.00 | 0.00 | 68 | 1016.1 |
| 20260906053034 | 80 | 33 | 0.0 | 0.9 | 0.00 | 0.00 | 0.00 | 67 | 1016.1 |
| 20260906052037 | 80 | 33 | 0.0 | 0.9 | 0.00 | 0.00 | 0.00 | 68 | 1016.1 |
| 20260906051044 | 80 | 33 | 0.0 | 0.0 | 0.00 | 0.00 | 0.00 | 69 | 1016.1 |
| 20260906050037 | 80 | 33 | 0.0 | 0.0 | 0.00 | 0.00 | 0.00 | 68 | 1016.0 |
| 20260906045051 | 81 | 33 | 0.0 | 0.0 | 0.00 | 0.00 | 0.00 | 68 | 1016.1 |
| 20260906044045 | 81 | 33 | 0.9 | 5.2 | 0.00 | 0.00 | 0.00 | 68 | 1016.0 |
| 20260906043029 | 81 | 126 | 0.0 | 0.0 | 0.00 | 0.00 | 0.00 | 67 | 1015.9 |
| 20260906042035 | 81 | 126 | 0.0 | 0.0 | 0.00 | 0.00 | 0.00 | 65 | 1015.9 |
| 20260906041025 | 82 | 126 | 0.0 | 0.0 | 0.00 | 0.00 | 0.00 | 65 | 1016.0 |
| 20260906040140 | 82 | 126 | 0.0 | 0.0 | 0.00 | 0.00 | 0.00 | 65 | 1016.0 |
| 20260906035042 | 82 | 126 | 0.0 | 0.0 | 0.00 | 0.00 | 0.00 | 63 | 1016.0 |
| 20260906034051 | 82 | 126 | 0.0 | 0.0 | 0.00 | 0.00 | 0.00 | 63 | 1015.9 |
| 20260906033105 | 83 | 126 | 0.0 | 0.0 | 0.00 | 0.00 | 0.00 | 63 | 1015.7 |
| 20260906032051 | 83 | 126 | 0.0 | 0.0 | 0.00 | 0.00 | 0.00 | 62 | 1015.6 |
| 20260906031047 | 83 | 126 | 0.0 | 0.0 | 0.00 | 0.00 | 0.00 | 62 | 1015.7 |
| 20260906030046 | 84 | 126 | 0.0 | 3.5 | 0.00 | 0.00 | 0.00 | 61 | 1015.7 |
| 20260906025031 | 84 | 124 | 0.9 | 3.5 | 0.00 | 0.00 | 0.00 | 61 | 1015.4 |
| 20260906024052 | 84 | 273 | 0.0 | 0.0 | 0.00 | 0.00 | 0.00 | 60 | 1015.4 |
| 20260906023036 | 84 | 273 | 0.0 | 0.0 | 0.00 | 0.00 | 0.00 | 59 | 1015.2 |
| 20260906022022 | 85 | 273 | 0.0 | 0.0 | 0.00 | 0.00 | 0.00 | 59 | 1015.2 |
| 20260906021027 | 85 | 273 | 0.0 | 0.0 | 0.00 | 0.00 | 0.00 | 55 | 1015.0 |
| 20260906020115 | 86 | 273 | 0.0 | 0.0 | 0.00 | 0.00 | 0.00 | 57 | 1014.9 |
| 20260906015046 | 87 | 273 | 0.0 | 0.0 | 0.00 | 0.00 | 0.00 | 54 | 1014.8 |
| 20260906014043 | 87 | 273 | 0.0 | 0.0 | 0.00 | 0.00 | 0.00 | 53 | 1014.8 |
| 20260906013027 | 88 | 273 | 0.0 | 0.0 | 0.00 | 0.00 | 0.00 | 54 | 1014.7 |
| 20260906012027 | 88 | 273 | 0.0 | 0.0 | 0.00 | 0.00 | 0.00 | 52 | 1014.6 |
| 20260906011042 | 89 | 273 | 0.0 | 0.0 | 0.00 | 0.00 | 0.00 | 50 | 1014.5 |
| 20260906010033 | 90 | 273 | 0.0 | 0.0 | 0.00 | 0.00 | 0.00 | 52 | 1014.4 |
| 20260906005055 | 90 | 273 | 0.0 | 0.0 | 0.00 | 0.00 | 0.00 | 48 | 1014.3 |
| 20260906004048 | 91 | 273 | 0.0 | 0.0 | 0.00 | 0.00 | 0.00 | 47 | 1014.3 |
| 20260906003048 | 93 | 273 | 0.0 | 0.0 | 0.00 | 0.00 | 0.00 | 44 | 1014.3 |
| 20260906002023 | 95 | 273 | 0.0 | 0.0 | 0.00 | 0.00 | 0.00 | 39 | 1014.3 |
| 20260906001032 | 96 | 273 | 0.0 | 0.9 | 0.00 | 0.00 | 0.00 | 37 | 1014.3 |
| 20260906000039 | 97 | 74 | 0.0 | 3.5 | 0.00 | 0.00 | 0.00 | 34 | 1014.3 |
| 20260905235025 | 98 | 263 | 0.0 | 0.0 | 0.00 | 0.00 | 0.00 | 34 | 1014.4 |
| 20260905234050 | 99 | 263 | 0.0 | 0.9 | 0.00 | 0.00 | 0.00 | 34 | 1014.4 |
| 20260905233036 | 100 | 263 | 0.0 | 0.9 | 0.00 | 0.00 | 0.00 | 30 | 1014.3 |
| 20260905232038 | 100 | 263 | 0.0 | 1.7 | 0.00 | 0.00 | 0.00 | 31 | 1014.2 |
| 20260905231053 | 100 | 263 | 0.9 | 3.5 | 0.00 | 0.00 | 0.00 | 28 | 1014.2 |
| 20260905230107 | 100 | 130 | 1.7 | 2.6 | 0.00 | 0.00 | 0.00 | 28 | 1014.2 |
| 20260905225050 | 100 | 128 | 0.9 | 3.5 | 0.00 | 0.00 | 0.00 | 29 | 1014.3 |
| 20260905224025 | 101 | 261 | 0.0 | 1.7 | 0.00 | 0.00 | 0.00 | 28 | 1014.3 |
| 20260905223057 | 102 | 261 | 0.9 | 3.5 | 0.00 | 0.00 | 0.00 | 28 | 1014.3 |
| 20260905222031 | 102 | 121 | 0.9 | 7.0 | 0.00 | 0.00 | 0.00 | 28 | 1014.3 |
| 20260905221023 | 101 | 211 | 0.9 | 4.3 | 0.00 | 0.00 | 0.00 | 28 | 1014.4 |
| 20260905220050 | 102 | 294 | 0.0 | 3.5 | 0.00 | 0.00 | 0.00 | 28 | 1014.4 |
| 20260905215058 | 101 | 23 | 0.9 | 3.5 | 0.00 | 0.00 | 0.00 | 28 | 1014.5 |
| 20260905214047 | 101 | 14 | 0.9 | 3.5 | 0.00 | 0.00 | 0.00 | 28 | 1014.7 |
| 20260905213042 | 100 | 124 | 2.6 | 4.3 | 0.00 | 0.00 | 0.00 | 29 | 1014.6 |
| 20260905212042 | 100 | 252 | 1.7 | 5.2 | 0.00 | 0.00 | 0.00 | 29 | 1014.9 |
| 20260905211056 | 100 | 138 | 0.9 | 3.5 | 0.00 | 0.00 | 0.00 | 28 | 1014.9 |
| 20260905210037 | 100 | 121 | 2.6 | 6.1 | 0.00 | 0.00 | 0.00 | 29 | 1015.1 |
| 20260905205033 | 100 | 249 | 2.6 | 6.1 | 0.00 | 0.00 | 0.00 | 29 | 1015.2 |
| 20260905204049 | 100 | 162 | 2.6 | 5.2 | 0.00 | 0.00 | 0.00 | 29 | 1015.4 |
| 20260905203044 | 101 | 115 | 2.6 | 7.0 | 0.00 | 0.00 | 0.00 | 28 | 1015.6 |
| 20260905202058 | 102 | 150 | 2.6 | 5.2 | 0.00 | 0.00 | 0.00 | 28 | 1015.8 |
| 20260905201025 | 102 | 138 | 2.6 | 7.0 | 0.00 | 0.00 | 0.00 | 27 | 1016.0 |
| 20260905200037 | 102 | 227 | 1.7 | 5.2 | 0.00 | 0.00 | 0.00 | 29 | 1016.0 |
| 20260905195049 | 102 | 243 | 0.9 | 4.3 | 0.00 | 0.00 | 0.00 | 28 | 1016.1 |
| 20260905194038 | 103 | 1 | 1.7 | 5.2 | 0.00 | 0.00 | 0.00 | 29 | 1016.2 |
| 20260905193048 | 102 | 64 | 3.5 | 7.0 | 0.00 | 0.00 | 0.00 | 30 | 1016.3 |
| 20260905192053 | 101 | 130 | 1.7 | 4.3 | 0.00 | 0.00 | 0.00 | 30 | 1016.4 |
| 20260905191030 | 101 | 315 | 1.7 | 5.2 | 0.00 | 0.00 | 0.00 | 30 | 1016.7 |
| 20260905190106 | 102 | 283 | 2.6 | 6.1 | 0.00 | 0.00 | 0.00 | 29 | 1016.7 |
| 20260905185021 | 101 | 104 | 0.9 | 7.0 | 0.00 | 0.00 | 0.00 | 31 | 1016.9 |
| 20260905184024 | 102 | 65 | 1.7 | 5.2 | 0.00 | 0.00 | 0.00 | 31 | 1017.0 |
| 20260905183030 | 102 | 261 | 0.9 | 5.2 | 0.00 | 0.00 | 0.00 | 30 | 1017.3 |